createdAt,value
2023-12-27T00:01:57.126Z,2.78
2023-12-27T00:04:24.147Z,2.47
2023-12-27T00:06:54.009Z,1.80
2023-12-27T00:09:20.979Z,2.20
2023-12-27T00:11:48.485Z,1.73
2023-12-27T00:14:15.209Z,2.50
2023-12-27T00:16:41.967Z,1.60
2023-12-27T00:19:09.082Z,1.30
2023-12-27T00:21:37.214Z,2.60
2023-12-27T00:24:04.267Z,2.25
2023-12-27T00:26:31.220Z,2.25
2023-12-27T00:28:58.069Z,2.38
2023-12-27T00:31:24.964Z,1.80
2023-12-27T00:33:52.448Z,2.22
2023-12-27T00:36:21.509Z,1.70
2023-12-27T00:38:48.847Z,2.65
2023-12-27T00:41:15.692Z,2.25
2023-12-27T00:43:42.629Z,2.03
2023-12-27T00:46:09.491Z,1.33
2023-12-27T00:48:36.525Z,2.15
2023-12-27T00:51:04.315Z,2.35
2023-12-27T00:53:31.483Z,2.85
2023-12-27T00:55:58.380Z,2.90
2023-12-27T00:58:25.265Z,2.03
2023-12-27T01:00:52.158Z,1.77
2023-12-27T01:03:19.335Z,2.50
2023-12-27T01:05:46.265Z,1.52
2023-12-27T01:08:13.180Z,2.00
2023-12-27T01:10:40.114Z,2.53
2023-12-27T01:13:06.953Z,2.65
2023-12-27T01:15:33.988Z,2.22
2023-12-27T01:18:01.268Z,1.80
2023-12-27T01:20:29.194Z,2.28
2023-12-27T01:22:59.058Z,2.42
2023-12-27T01:25:25.797Z,1.88
2023-12-27T01:27:53.369Z,2.47
2023-12-27T01:30:23.818Z,2.17
2023-12-27T01:32:50.797Z,1.52
2023-12-27T01:35:17.719Z,3.78
2023-12-27T01:37:46.092Z,1.85
2023-12-27T01:40:12.977Z,1.88
2023-12-27T01:42:40.506Z,2.00
2023-12-27T01:45:11.550Z,2.03
2023-12-27T01:47:39.182Z,2.53
2023-12-27T01:50:09.590Z,2.35
2023-12-27T01:52:37.625Z,1.92
2023-12-27T01:55:04.853Z,2.85
2023-12-27T01:57:31.957Z,1.27
2023-12-27T01:59:58.824Z,1.70
2023-12-27T02:02:26.328Z,2.80
2023-12-27T02:04:53.098Z,1.95
2023-12-27T02:07:28.031Z,1.65
2023-12-27T02:10:01.105Z,1.90
2023-12-27T02:12:30.909Z,2.20
2023-12-27T02:14:58.326Z,1.30
2023-12-27T02:17:27.644Z,1.98
2023-12-27T02:19:55.777Z,2.20
2023-12-27T02:22:24.825Z,1.10
2023-12-27T02:24:53.400Z,1.48
2023-12-27T02:27:20.245Z,1.10
2023-12-27T02:29:47.439Z,2.00
2023-12-27T02:32:14.258Z,1.15
2023-12-27T02:34:41.388Z,1.40
2023-12-27T02:37:08.231Z,1.35
2023-12-27T02:39:35.121Z,1.30
2023-12-27T02:42:01.940Z,1.63
2023-12-27T02:44:29.361Z,0.90
2023-12-27T02:46:56.753Z,1.77
2023-12-27T02:49:23.643Z,1.33
2023-12-27T02:51:50.550Z,1.10
2023-12-27T02:54:17.454Z,1.30
2023-12-27T02:56:44.205Z,1.10
2023-12-27T02:59:11.046Z,1.25
2023-12-27T03:01:38.000Z,1.13
2023-12-27T03:04:04.884Z,1.25
2023-12-27T03:06:31.952Z,1.25
2023-12-27T03:08:58.852Z,1.88
2023-12-27T03:11:25.588Z,1.10
2023-12-27T03:13:52.450Z,2.00
2023-12-27T03:16:20.546Z,2.05
2023-12-27T03:18:47.967Z,1.30
2023-12-27T03:21:15.207Z,1.10
2023-12-27T03:23:42.075Z,1.60
2023-12-27T03:26:08.965Z,1.75
2023-12-27T03:28:36.618Z,1.08
2023-12-27T03:31:03.785Z,1.83
2023-12-27T03:33:30.817Z,1.52
2023-12-27T03:35:58.094Z,1.58
2023-12-27T03:38:25.224Z,1.95
2023-12-27T03:40:52.303Z,1.83
2023-12-27T03:43:19.353Z,1.85
2023-12-27T03:45:55.297Z,1.40
2023-12-27T03:48:22.610Z,1.20
2023-12-27T03:50:49.665Z,2.72
2023-12-27T03:53:16.468Z,1.05
2023-12-27T03:55:44.067Z,1.25
2023-12-27T03:58:11.184Z,1.35
2023-12-27T04:00:38.184Z,1.10
2023-12-27T04:03:05.447Z,1.25
2023-12-27T04:05:32.293Z,1.25
2023-12-27T04:07:59.314Z,1.20
2023-12-27T04:10:33.020Z,1.58
2023-12-27T04:13:00.231Z,1.92
2023-12-27T04:15:27.170Z,1.48
2023-12-27T04:17:54.757Z,1.33
2023-12-27T04:20:21.946Z,1.05
2023-12-27T04:22:48.778Z,1.33
2023-12-27T04:25:15.634Z,1.90
2023-12-27T04:27:42.882Z,1.40
2023-12-27T04:30:10.713Z,1.15
2023-12-27T04:32:37.603Z,1.75
2023-12-27T04:35:04.702Z,1.02
2023-12-27T04:37:32.226Z,1.58
2023-12-27T04:39:59.106Z,1.13
2023-12-27T04:42:25.979Z,1.23
2023-12-27T04:44:52.787Z,1.60
2023-12-27T04:47:19.573Z,1.30
2023-12-27T04:49:46.662Z,1.92
2023-12-27T04:52:15.969Z,1.25
2023-12-27T04:54:42.712Z,1.38
2023-12-27T04:57:09.832Z,1.00
2023-12-27T04:59:36.863Z,1.60
2023-12-27T05:02:03.759Z,1.23
2023-12-27T05:04:31.120Z,1.40
2023-12-27T05:06:57.839Z,1.35
2023-12-27T05:09:25.193Z,1.48
2023-12-27T05:11:52.510Z,1.05
2023-12-27T05:14:19.448Z,1.65
2023-12-27T05:16:49.344Z,2.28
2023-12-27T05:19:16.208Z,2.40
2023-12-27T05:21:43.142Z,2.58
2023-12-27T05:24:09.911Z,1.65
2023-12-27T05:26:36.702Z,2.33
2023-12-27T05:29:03.502Z,2.03
2023-12-27T05:31:30.476Z,1.92
2023-12-27T05:33:57.589Z,2.30
2023-12-27T05:36:24.514Z,2.30
2023-12-27T05:38:51.321Z,2.92
2023-12-27T05:41:22.803Z,2.55
2023-12-27T05:43:49.783Z,3.08
2023-12-27T05:46:16.613Z,2.35
2023-12-27T05:48:43.986Z,1.92
2023-12-27T05:51:10.890Z,2.00
2023-12-27T05:53:37.702Z,1.77
2023-12-27T05:56:05.018Z,2.60
2023-12-27T05:58:31.774Z,2.58
2023-12-27T06:00:58.966Z,2.15
2023-12-27T06:03:26.045Z,2.33
2023-12-27T06:05:52.849Z,1.85
2023-12-27T06:08:22.374Z,2.08
2023-12-27T06:10:50.436Z,1.38
2023-12-27T06:13:17.546Z,2.15
2023-12-27T06:15:44.517Z,2.50
2023-12-27T06:18:11.813Z,2.13
2023-12-27T06:20:38.899Z,3.40
2023-12-27T06:23:05.772Z,2.80
2023-12-27T06:25:32.615Z,2.50
2023-12-27T06:27:59.750Z,2.85
2023-12-27T06:30:27.185Z,2.97
2023-12-27T06:32:54.474Z,2.45
2023-12-27T06:35:21.273Z,2.10
2023-12-27T06:37:48.614Z,3.55
2023-12-27T06:40:15.558Z,2.25
2023-12-27T06:42:42.438Z,2.70
2023-12-27T06:45:09.914Z,2.20
2023-12-27T06:47:37.400Z,2.45
2023-12-27T06:50:04.836Z,2.35
2023-12-27T06:52:31.660Z,2.50
2023-12-27T06:54:58.509Z,3.15
2023-12-27T06:57:25.295Z,3.58
2023-12-27T06:59:52.095Z,2.50
2023-12-27T07:02:20.257Z,3.30
2023-12-27T07:04:48.134Z,2.78
2023-12-27T07:07:15.516Z,2.55
2023-12-27T07:09:44.021Z,1.92
2023-12-27T07:12:13.100Z,3.00
2023-12-27T07:14:39.916Z,2.85
2023-12-27T07:17:08.044Z,2.88
2023-12-27T07:19:35.144Z,2.65
2023-12-27T07:22:03.263Z,2.97
2023-12-27T07:24:30.867Z,3.35
2023-12-27T07:26:57.858Z,2.53
2023-12-27T07:29:24.656Z,1.67
2023-12-27T07:31:51.739Z,2.45
2023-12-27T07:34:18.543Z,2.35
2023-12-27T07:36:45.854Z,2.80
2023-12-27T07:39:12.751Z,2.80
2023-12-27T07:41:39.490Z,2.05
2023-12-27T07:44:06.244Z,2.00
2023-12-27T07:46:33.022Z,1.90
2023-12-27T07:48:59.913Z,1.98
2023-12-27T07:51:26.753Z,2.15
2023-12-27T07:53:53.597Z,2.83
2023-12-27T07:56:20.745Z,2.80
2023-12-27T07:58:48.692Z,3.58
2023-12-27T08:01:16.061Z,3.10
2023-12-27T08:03:46.242Z,3.33
2023-12-27T08:06:13.510Z,2.90
2023-12-27T08:08:40.486Z,3.83
2023-12-27T08:11:07.389Z,4.00
2023-12-27T08:13:34.459Z,3.05
2023-12-27T08:16:01.591Z,3.03
2023-12-27T08:18:28.735Z,3.15
2023-12-27T08:20:56.663Z,2.85
2023-12-27T08:23:23.446Z,2.45
2023-12-27T08:25:50.319Z,3.22
2023-12-27T08:28:17.785Z,3.08
2023-12-27T08:30:45.864Z,3.50
2023-12-27T08:33:13.078Z,3.17
2023-12-27T08:35:40.181Z,3.67
2023-12-27T08:38:07.075Z,3.78
2023-12-27T08:40:33.921Z,3.33
2023-12-27T08:43:01.165Z,3.10
2023-12-27T08:45:29.510Z,3.65
2023-12-27T08:47:57.257Z,3.55
2023-12-27T08:50:24.832Z,3.35
2023-12-27T08:52:51.629Z,3.05
2023-12-27T08:55:18.493Z,3.67
2023-12-27T08:57:46.829Z,2.58
2023-12-27T09:00:14.345Z,3.45
2023-12-27T09:02:41.838Z,3.35
2023-12-27T09:05:08.939Z,3.97
2023-12-27T09:07:35.695Z,2.72
2023-12-27T09:10:03.156Z,2.10
2023-12-27T09:12:29.895Z,2.70
2023-12-27T09:14:57.999Z,2.80
2023-12-27T09:17:24.793Z,3.20
2023-12-27T09:19:51.662Z,3.45
2023-12-27T09:22:18.482Z,3.25
2023-12-27T09:24:45.440Z,3.50
2023-12-27T09:27:18.930Z,3.75
2023-12-27T09:29:46.340Z,3.97
2023-12-27T09:32:13.335Z,4.35
2023-12-27T09:34:40.327Z,2.88
2023-12-27T09:37:08.153Z,3.55
2023-12-27T09:39:35.125Z,4.18
2023-12-27T09:42:02.616Z,3.45
2023-12-27T09:44:30.909Z,3.65
2023-12-27T09:46:59.902Z,3.05
2023-12-27T09:49:27.435Z,3.00
2023-12-27T09:51:57.583Z,3.28
2023-12-27T09:54:25.103Z,3.13
2023-12-27T09:56:52.476Z,2.35
2023-12-27T09:59:27.760Z,2.75
2023-12-27T10:02:02.446Z,2.88
2023-12-27T10:04:46.178Z,3.45
2023-12-27T10:07:16.291Z,2.08
2023-12-27T10:09:43.605Z,3.35
2023-12-27T10:12:10.756Z,3.10
2023-12-27T10:14:39.048Z,3.28
2023-12-27T10:17:05.799Z,2.97
2023-12-27T10:19:42.349Z,3.55
2023-12-27T10:22:10.437Z,2.83
2023-12-27T10:24:37.582Z,3.50
2023-12-27T10:27:05.795Z,3.38
2023-12-27T10:29:33.330Z,3.45
2023-12-27T10:32:01.960Z,2.97
2023-12-27T10:34:29.459Z,3.40
2023-12-27T10:36:57.631Z,3.28
2023-12-27T10:39:24.933Z,2.47
2023-12-27T10:41:55.072Z,3.03
2023-12-27T10:44:22.292Z,3.05
2023-12-27T10:46:52.718Z,3.53
2023-12-27T10:49:24.036Z,2.80
2023-12-27T10:51:53.239Z,3.10
2023-12-27T10:54:22.619Z,3.33
2023-12-27T10:56:52.603Z,3.95
2023-12-27T10:59:20.196Z,2.83
2023-12-27T11:01:47.534Z,4.13
2023-12-27T11:04:17.153Z,4.25
2023-12-27T11:06:46.750Z,3.72
2023-12-27T11:09:15.258Z,3.10
2023-12-27T11:11:42.503Z,3.70
2023-12-27T11:14:10.544Z,3.45
2023-12-27T11:16:40.794Z,2.92
2023-12-27T11:19:10.229Z,2.90
2023-12-27T11:21:38.573Z,2.78
2023-12-27T11:24:06.953Z,2.75
2023-12-27T11:26:38.191Z,3.08
2023-12-27T11:29:12.775Z,2.38
2023-12-27T11:31:40.333Z,2.85
2023-12-27T11:34:07.577Z,2.15
2023-12-27T11:36:35.869Z,2.50
2023-12-27T11:39:19.393Z,2.13
2023-12-27T11:41:47.097Z,2.25
2023-12-27T11:44:18.360Z,2.25
2023-12-27T11:46:45.499Z,2.88
2023-12-27T11:49:22.436Z,2.30
2023-12-27T11:51:49.477Z,2.22
2023-12-27T11:54:24.334Z,2.40
2023-12-27T11:56:56.135Z,2.80
2023-12-27T11:59:23.556Z,2.42
2023-12-27T12:01:51.091Z,2.45
2023-12-27T12:04:27.293Z,2.08
2023-12-27T12:06:57.786Z,2.95
2023-12-27T12:09:45.684Z,3.03
2023-12-27T12:12:21.104Z,3.05
2023-12-27T12:14:51.615Z,2.85
2023-12-27T12:17:21.758Z,3.10
2023-12-27T12:19:52.658Z,2.67
2023-12-27T12:22:20.580Z,3.55
2023-12-27T12:24:47.895Z,2.78
2023-12-27T12:27:22.754Z,2.83
2023-12-27T12:29:49.999Z,3.63
2023-12-27T12:32:17.077Z,3.25
2023-12-27T12:34:44.410Z,2.92
2023-12-27T12:37:11.878Z,2.53
2023-12-27T12:39:39.100Z,3.42
2023-12-27T12:42:06.282Z,2.95
2023-12-27T12:44:33.485Z,2.75
2023-12-27T12:47:01.629Z,2.80
2023-12-27T12:49:30.466Z,3.03
2023-12-27T12:52:08.490Z,2.65
2023-12-27T12:54:37.629Z,2.55
2023-12-27T12:57:06.018Z,3.13
2023-12-27T12:59:33.163Z,2.65
2023-12-27T13:02:01.100Z,3.85
2023-12-27T13:04:27.937Z,2.50
2023-12-27T13:07:01.923Z,3.30
2023-12-27T13:09:28.972Z,2.53
2023-12-27T13:11:56.776Z,3.30
2023-12-27T13:14:23.728Z,2.38
2023-12-27T13:16:50.659Z,2.63
2023-12-27T13:19:18.454Z,2.33
2023-12-27T13:21:45.795Z,2.05
2023-12-27T13:24:12.687Z,2.70
2023-12-27T13:26:39.495Z,2.20
2023-12-27T13:29:06.517Z,3.45
2023-12-27T13:31:33.507Z,2.80
2023-12-27T13:34:00.652Z,2.17
2023-12-27T13:36:29.684Z,2.65
2023-12-27T13:38:57.502Z,2.35
2023-12-27T13:41:25.191Z,2.70
2023-12-27T13:43:51.964Z,3.50
2023-12-27T13:46:19.137Z,2.80
2023-12-27T13:48:45.942Z,2.10
2023-12-27T13:51:13.413Z,2.33
2023-12-27T13:53:40.211Z,2.50
2023-12-27T13:56:08.088Z,3.53
2023-12-27T13:58:36.497Z,2.70
2023-12-27T14:01:03.735Z,3.15
2023-12-27T14:03:33.061Z,2.17
2023-12-27T14:06:01.047Z,2.30
2023-12-27T14:08:28.771Z,3.92
2023-12-27T14:10:57.137Z,2.20
2023-12-27T14:13:26.121Z,2.38
2023-12-27T14:15:53.376Z,2.13
2023-12-27T14:18:20.385Z,2.38
2023-12-27T14:20:47.854Z,2.30
2023-12-27T14:23:14.784Z,2.00
2023-12-27T14:25:42.016Z,2.40
2023-12-27T14:28:08.892Z,2.10
2023-12-27T14:30:35.922Z,3.88
2023-12-27T14:33:04.146Z,2.17
2023-12-27T14:35:31.762Z,2.35
2023-12-27T14:37:58.728Z,2.53
2023-12-27T14:40:27.019Z,2.20
2023-12-27T14:42:54.015Z,3.17
2023-12-27T14:45:21.007Z,2.38
2023-12-27T14:47:48.281Z,3.22
2023-12-27T14:50:15.038Z,2.38
2023-12-27T14:52:41.867Z,2.90
2023-12-27T14:55:10.473Z,2.50
2023-12-27T14:57:37.506Z,2.97
2023-12-27T15:00:05.558Z,2.70
2023-12-27T15:02:32.733Z,2.65
2023-12-27T15:04:59.902Z,3.55
2023-12-27T15:07:27.861Z,2.38
2023-12-27T15:09:55.271Z,2.00
2023-12-27T15:12:22.148Z,2.58
2023-12-27T15:14:48.933Z,2.75
2023-12-27T15:17:15.930Z,2.53
2023-12-27T15:19:42.824Z,2.33
2023-12-27T15:22:09.650Z,2.40
2023-12-27T15:24:37.070Z,2.20
2023-12-27T15:27:04.264Z,3.47
2023-12-27T15:29:31.808Z,1.73
2023-12-27T15:31:59.352Z,2.30
2023-12-27T15:34:26.213Z,2.13
2023-12-27T15:36:53.070Z,1.95
2023-12-27T15:39:20.566Z,1.88
2023-12-27T15:41:47.576Z,2.08
2023-12-27T15:44:14.365Z,2.55
2023-12-27T15:46:41.192Z,1.67
2023-12-27T15:49:08.076Z,2.42
2023-12-27T15:51:40.883Z,2.55
2023-12-27T15:54:08.713Z,1.88
2023-12-27T15:56:39.496Z,2.95
2023-12-27T15:59:06.795Z,1.70
2023-12-27T16:01:37.145Z,3.17
2023-12-27T16:04:08.037Z,2.40
2023-12-27T16:06:37.080Z,4.40
2023-12-27T16:09:05.622Z,2.20
2023-12-27T16:11:32.706Z,4.72
2023-12-27T16:14:02.775Z,2.85
2023-12-27T16:16:29.622Z,2.38
2023-12-27T16:18:56.656Z,2.50
2023-12-27T16:21:24.753Z,2.45
2023-12-27T16:23:51.976Z,2.25
2023-12-27T16:26:21.334Z,3.55
2023-12-27T16:28:48.585Z,3.47
2023-12-27T16:31:15.879Z,2.83
2023-12-27T16:33:43.070Z,1.88
2023-12-27T16:36:11.354Z,2.47
2023-12-27T16:38:40.852Z,2.33
2023-12-27T16:41:08.407Z,2.58
2023-12-27T16:43:40.248Z,2.95
2023-12-27T16:46:09.606Z,3.50
2023-12-27T16:48:36.491Z,2.15
2023-12-27T16:51:03.644Z,2.83
2023-12-27T16:53:30.632Z,2.60
2023-12-27T16:55:57.514Z,3.22
2023-12-27T16:58:24.495Z,1.67
2023-12-27T17:00:51.444Z,1.77
2023-12-27T17:03:18.860Z,1.63
2023-12-27T17:05:47.539Z,1.60
2023-12-27T17:08:25.626Z,1.42
2023-12-27T17:10:52.397Z,1.83
2023-12-27T17:13:19.792Z,1.92
2023-12-27T17:15:47.326Z,1.58
2023-12-27T17:18:14.337Z,0.95
2023-12-27T17:20:41.355Z,1.60
2023-12-27T17:23:08.124Z,1.33
2023-12-27T17:25:35.351Z,1.08
2023-12-27T17:28:02.580Z,0.85
2023-12-27T17:30:29.546Z,1.58
2023-12-27T17:32:56.623Z,1.45
2023-12-27T17:35:24.857Z,1.48
2023-12-27T17:37:52.272Z,1.23
2023-12-27T17:40:19.973Z,1.20
2023-12-27T17:42:46.925Z,1.20
2023-12-27T17:45:15.945Z,1.83
2023-12-27T17:47:43.208Z,1.05
2023-12-27T17:50:10.977Z,0.80
2023-12-27T17:52:38.350Z,1.83
2023-12-27T17:55:05.597Z,1.67
2023-12-27T17:57:37.246Z,1.55
2023-12-27T18:00:08.036Z,1.20
2023-12-27T18:02:36.743Z,0.98
2023-12-27T18:05:05.340Z,1.23
2023-12-27T18:07:32.565Z,1.27
2023-12-27T18:09:59.323Z,0.70
2023-12-27T18:12:26.421Z,1.15
2023-12-27T18:14:56.582Z,1.02
2023-12-27T18:17:24.039Z,0.73
2023-12-27T18:19:51.324Z,0.50
2023-12-27T18:22:18.126Z,0.82
2023-12-27T18:24:45.773Z,1.27
2023-12-27T18:27:13.076Z,1.05
2023-12-27T18:29:41.518Z,0.93
2023-12-27T18:32:11.248Z,1.35
2023-12-27T18:34:41.740Z,1.45
2023-12-27T18:37:10.096Z,1.30
2023-12-27T18:39:37.653Z,1.67
2023-12-27T18:42:05.006Z,1.85
2023-12-27T18:44:33.197Z,1.45
2023-12-27T18:47:00.967Z,1.60
2023-12-27T18:49:27.984Z,1.80
2023-12-27T18:51:55.331Z,2.13
2023-12-27T18:54:22.200Z,1.60
2023-12-27T18:56:49.476Z,2.40
2023-12-27T18:59:17.008Z,2.53
2023-12-27T19:01:46.834Z,2.58
2023-12-27T19:04:13.847Z,1.88
2023-12-27T19:06:40.789Z,2.45
2023-12-27T19:09:12.845Z,2.45
2023-12-27T19:11:40.039Z,1.90
2023-12-27T19:14:07.297Z,1.40
2023-12-27T19:16:34.420Z,2.58
2023-12-27T19:19:01.743Z,2.67
2023-12-27T19:21:28.830Z,2.28
2023-12-27T19:23:57.177Z,2.25
2023-12-27T19:26:27.456Z,2.35
2023-12-27T19:28:54.993Z,2.97
2023-12-27T19:31:22.058Z,2.08
2023-12-27T19:33:49.170Z,2.25
2023-12-27T19:36:16.480Z,2.75
2023-12-27T19:38:43.617Z,2.10
2023-12-27T19:41:12.485Z,2.72
2023-12-27T19:43:39.586Z,2.75
2023-12-27T19:46:08.224Z,3.30
2023-12-27T19:48:35.466Z,3.70
2023-12-27T19:51:03.953Z,2.58
2023-12-27T19:53:30.986Z,1.60
2023-12-27T19:55:58.635Z,2.92
2023-12-27T19:58:25.916Z,2.13
2023-12-27T20:00:53.158Z,2.63
2023-12-27T20:03:20.230Z,3.30
2023-12-27T20:05:47.213Z,3.10
2023-12-27T20:08:14.137Z,2.72
2023-12-27T20:10:41.168Z,3.50
2023-12-27T20:13:08.472Z,3.65
2023-12-27T20:18:09.082Z,1.70
2023-12-27T20:20:36.121Z,3.25
2023-12-27T20:23:03.066Z,3.75
2023-12-27T20:25:29.898Z,2.85
2023-12-27T20:27:57.128Z,2.78
2023-12-27T20:30:24.138Z,3.28
2023-12-27T20:32:52.392Z,2.58
2023-12-27T20:35:19.597Z,2.15
2023-12-27T20:37:46.315Z,2.35
2023-12-27T20:40:13.361Z,2.83
2023-12-27T20:42:40.174Z,3.00
2023-12-27T20:45:07.498Z,3.58
2023-12-27T20:47:34.749Z,3.35
2023-12-27T20:50:01.862Z,2.92
2023-12-27T20:52:28.758Z,2.45
2023-12-27T20:54:55.768Z,2.63
2023-12-27T20:57:24.294Z,4.05
2023-12-27T20:59:51.121Z,3.95
2023-12-27T21:02:18.149Z,2.92
2023-12-27T21:04:48.099Z,3.53
2023-12-27T21:07:15.105Z,3.17
2023-12-27T21:09:42.408Z,3.25
2023-12-27T21:12:09.872Z,4.20
2023-12-27T21:14:36.883Z,2.88
2023-12-27T21:17:03.796Z,3.38
2023-12-27T21:19:32.198Z,2.63
2023-12-27T21:21:59.208Z,3.67
2023-12-27T21:24:26.246Z,3.78
2023-12-27T21:26:53.395Z,3.38
2023-12-27T21:29:21.432Z,4.30
2023-12-27T21:31:49.502Z,4.00
2023-12-27T21:34:16.692Z,4.10
2023-12-27T21:36:43.751Z,4.30
2023-12-27T21:39:11.201Z,3.53
2023-12-27T21:41:45.966Z,2.97
2023-12-27T21:44:14.090Z,5.55
2023-12-27T21:46:43.174Z,4.30
2023-12-27T21:49:10.409Z,4.72
2023-12-27T21:51:38.375Z,4.22
2023-12-27T21:54:05.585Z,4.45
2023-12-27T21:56:32.649Z,3.78
2023-12-27T21:59:01.325Z,5.03
2023-12-27T22:01:35.501Z,3.40
2023-12-27T22:04:05.788Z,3.53
2023-12-27T22:06:33.576Z,3.38
2023-12-27T22:09:00.599Z,3.60
2023-12-27T22:11:27.835Z,4.65
2023-12-27T22:13:55.309Z,3.40
2023-12-27T22:16:24.028Z,3.78
2023-12-27T22:18:52.404Z,3.97
2023-12-27T22:21:20.873Z,4.22
2023-12-27T22:23:48.859Z,4.28
2023-12-27T22:26:16.098Z,4.13
2023-12-27T22:28:43.213Z,4.50
2023-12-27T22:31:11.524Z,3.85
2023-12-27T22:33:39.134Z,3.58
2023-12-27T22:36:09.782Z,4.47
2023-12-27T22:38:37.068Z,3.50
2023-12-27T22:41:04.422Z,4.53
2023-12-27T22:43:31.956Z,5.15
2023-12-27T22:45:58.834Z,4.78
2023-12-27T22:48:25.915Z,5.30
2023-12-27T22:50:52.978Z,4.40
2023-12-27T22:53:19.762Z,3.88
2023-12-27T22:55:46.514Z,3.95
2023-12-27T22:58:13.262Z,3.22
2023-12-27T23:00:40.183Z,4.80
2023-12-27T23:03:13.181Z,4.75
2023-12-27T23:05:42.402Z,4.22
2023-12-27T23:08:09.456Z,4.57
2023-12-27T23:10:36.257Z,5.47
2023-12-27T23:13:04.111Z,3.40
2023-12-27T23:15:30.947Z,3.72
2023-12-27T23:18:01.886Z,4.60
2023-12-27T23:20:28.854Z,5.53
2023-12-27T23:22:55.985Z,3.58
2023-12-27T23:25:22.889Z,4.00
2023-12-27T23:27:50.210Z,4.35
2023-12-27T23:30:17.631Z,4.60
2023-12-27T23:32:48.800Z,5.18
2023-12-27T23:35:18.322Z,4.18
2023-12-27T23:37:45.105Z,4.93
2023-12-27T23:40:12.493Z,4.53
2023-12-27T23:42:39.524Z,5.15
2023-12-27T23:45:07.206Z,5.53
2023-12-27T23:47:34.221Z,6.35
2023-12-27T23:50:01.095Z,4.43
2023-12-27T23:52:31.617Z,4.97
2023-12-27T23:54:58.336Z,3.90
2023-12-27T23:57:25.240Z,4.13
2023-12-27T23:59:51.980Z,4.22
